sensor_id;sensor_type;location;lat;lon;timestamp;P1;durP1;ratioP1;P2;durP2;ratioP2
3231;SDS011;1628;48.884;9.210;2022-10-18T04:00:47;13.17;;;6.70;;
3231;SDS011;1628;48.884;9.210;2022-10-18T04:03:14;7.50;;;6.47;;
3231;SDS011;1628;48.884;9.210;2022-10-18T04:05:41;18.73;;;7.37;;
3231;SDS011;1628;48.884;9.210;2022-10-18T04:08:07;13.93;;;7.93;;
3231;SDS011;1628;48.884;9.210;2022-10-18T04:10:35;9.20;;;6.00;;
3231;SDS011;1628;48.884;9.210;2022-10-18T04:13:02;13.50;;;6.10;;
3231;SDS011;1628;48.884;9.210;2022-10-18T04:15:29;13.43;;;7.00;;
3231;SDS011;1628;48.884;9.210;2022-10-18T04:17:57;7.70;;;6.67;;
3231;SDS011;1628;48.884;9.210;2022-10-18T04:20:24;9.73;;;6.40;;
3231;SDS011;1628;48.884;9.210;2022-10-18T04:22:52;11.20;;;6.90;;
3231;SDS011;1628;48.884;9.210;2022-10-18T04:25:19;8.43;;;6.27;;
3231;SDS011;1628;48.884;9.210;2022-10-18T04:27:46;7.10;;;6.53;;
3231;SDS011;1628;48.884;9.210;2022-10-18T04:30:13;10.63;;;6.30;;
3231;SDS011;1628;48.884;9.210;2022-10-18T04:32:40;6.97;;;6.27;;
3231;SDS011;1628;48.884;9.210;2022-10-18T04:35:08;7.83;;;6.90;;
3231;SDS011;1628;48.884;9.210;2022-10-18T04:37:35;8.77;;;6.00;;
3231;SDS011;1628;48.884;9.210;2022-10-18T04:40:02;8.20;;;5.43;;
3231;SDS011;1628;48.884;9.210;2022-10-18T04:42:29;11.07;;;7.50;;
3231;SDS011;1628;48.884;9.210;2022-10-18T04:44:56;11.70;;;5.73;;
3231;SDS011;1628;48.884;9.210;2022-10-18T04:47:23;13.53;;;6.50;;
3231;SDS011;1628;48.884;9.210;2022-10-18T04:49:49;8.57;;;6.00;;
3231;SDS011;1628;48.884;9.210;2022-10-18T04:52:17;8.07;;;6.80;;
3231;SDS011;1628;48.884;9.210;2022-10-18T04:54:44;7.07;;;5.80;;
3231;SDS011;1628;48.884;9.210;2022-10-18T04:57:11;6.77;;;5.27;;
3231;SDS011;1628;48.884;9.210;2022-10-18T04:59:37;8.33;;;5.63;;
3231;SDS011;1628;48.884;9.210;2022-10-18T05:02:04;5.73;;;5.27;;
3231;SDS011;1628;48.884;9.210;2022-10-18T05:04:31;10.23;;;6.40;;
3231;SDS011;1628;48.884;9.210;2022-10-18T05:06:57;10.20;;;6.20;;
3231;SDS011;1628;48.884;9.210;2022-10-18T05:09:25;6.53;;;6.03;;
3231;SDS011;1628;48.884;9.210;2022-10-18T05:11:52;8.43;;;5.73;;
3231;SDS011;1628;48.884;9.210;2022-10-18T05:14:19;7.27;;;6.70;;
3231;SDS011;1628;48.884;9.210;2022-10-18T05:16:45;7.50;;;5.57;;
3231;SDS011;1628;48.884;9.210;2022-10-18T05:19:12;7.90;;;6.00;;
3231;SDS011;1628;48.884;9.210;2022-10-18T05:21:39;7.80;;;6.07;;
3231;SDS011;1628;48.884;9.210;2022-10-18T05:24:05;8.87;;;6.23;;
3231;SDS011;1628;48.884;9.210;2022-10-18T05:26:33;9.57;;;6.20;;
3231;SDS011;1628;48.884;9.210;2022-10-18T05:29:00;10.40;;;6.13;;
3231;SDS011;1628;48.884;9.210;2022-10-18T05:31:27;6.83;;;6.13;;
3231;SDS011;1628;48.884;9.210;2022-10-18T05:33:54;11.70;;;6.20;;
3231;SDS011;1628;48.884;9.210;2022-10-18T05:36:20;8.70;;;7.30;;
3231;SDS011;1628;48.884;9.210;2022-10-18T05:38:49;9.57;;;7.30;;
3231;SDS011;1628;48.884;9.210;2022-10-18T05:41:17;10.73;;;6.97;;
3231;SDS011;1628;48.884;9.210;2022-10-18T05:43:45;9.23;;;6.23;;
3231;SDS011;1628;48.884;9.210;2022-10-18T05:46:12;15.03;;;7.00;;
3231;SDS011;1628;48.884;9.210;2022-10-18T05:48:39;8.23;;;6.40;;
3231;SDS011;1628;48.884;9.210;2022-10-18T05:51:05;9.50;;;6.53;;
3231;SDS011;1628;48.884;9.210;2022-10-18T05:53:32;10.90;;;8.10;;
3231;SDS011;1628;48.884;9.210;2022-10-18T05:55:59;10.70;;;7.10;;
3231;SDS011;1628;48.884;9.210;2022-10-18T05:58:26;5.97;;;5.47;;
3231;SDS011;1628;48.884;9.210;2022-10-18T06:00:54;6.80;;;6.20;;
3231;SDS011;1628;48.884;9.210;2022-10-18T06:03:23;7.57;;;6.10;;
3231;SDS011;1628;48.884;9.210;2022-10-18T06:05:51;6.70;;;6.10;;
3231;SDS011;1628;48.884;9.210;2022-10-18T06:08:18;9.37;;;6.30;;
3231;SDS011;1628;48.884;9.210;2022-10-18T06:10:44;7.57;;;6.80;;
3231;SDS011;1628;48.884;9.210;2022-10-18T06:13:11;7.67;;;7.07;;
3231;SDS011;1628;48.884;9.210;2022-10-18T06:15:38;7.73;;;6.33;;
3231;SDS011;1628;48.884;9.210;2022-10-18T06:18:06;9.87;;;6.30;;
3231;SDS011;1628;48.884;9.210;2022-10-18T06:20:33;8.67;;;6.57;;
3231;SDS011;1628;48.884;9.210;2022-10-18T06:22:59;10.00;;;6.60;;
3231;SDS011;1628;48.884;9.210;2022-10-18T06:25:26;14.83;;;6.40;;
3231;SDS011;1628;48.884;9.210;2022-10-18T06:27:53;10.60;;;6.17;;
3231;SDS011;1628;48.884;9.210;2022-10-18T06:30:19;10.90;;;6.70;;
3231;SDS011;1628;48.884;9.210;2022-10-18T06:32:46;11.00;;;5.77;;
3231;SDS011;1628;48.884;9.210;2022-10-18T06:35:14;9.63;;;6.40;;
3231;SDS011;1628;48.884;9.210;2022-10-18T06:37:41;8.80;;;6.43;;
3231;SDS011;1628;48.884;9.210;2022-10-18T06:40:08;9.10;;;6.40;;
3231;SDS011;1628;48.884;9.210;2022-10-18T06:42:35;6.90;;;5.87;;
3231;SDS011;1628;48.884;9.210;2022-10-18T06:45:02;7.47;;;5.50;;
3231;SDS011;1628;48.884;9.210;2022-10-18T06:47:29;10.37;;;6.50;;
3231;SDS011;1628;48.884;9.210;2022-10-18T06:49:56;8.83;;;5.50;;
3231;SDS011;1628;48.884;9.210;2022-10-18T06:52:24;7.13;;;5.43;;
3231;SDS011;1628;48.884;9.210;2022-10-18T06:54:51;10.33;;;5.60;;
3231;SDS011;1628;48.884;9.210;2022-10-18T06:57:18;8.33;;;5.67;;
3231;SDS011;1628;48.884;9.210;2022-10-18T06:59:45;7.17;;;6.40;;
3231;SDS011;1628;48.884;9.210;2022-10-18T07:02:12;6.20;;;4.80;;
3231;SDS011;1628;48.884;9.210;2022-10-18T07:04:41;13.47;;;6.00;;
3231;SDS011;1628;48.884;9.210;2022-10-18T07:07:08;7.70;;;5.13;;
3231;SDS011;1628;48.884;9.210;2022-10-18T07:09:36;6.53;;;5.77;;
3231;SDS011;1628;48.884;9.210;2022-10-18T07:12:03;7.57;;;5.70;;
3231;SDS011;1628;48.884;9.210;2022-10-18T07:14:29;10.13;;;5.33;;
3231;SDS011;1628;48.884;9.210;2022-10-18T07:16:57;7.30;;;4.90;;
3231;SDS011;1628;48.884;9.210;2022-10-18T07:19:24;10.13;;;5.67;;
3231;SDS011;1628;48.884;9.210;2022-10-18T07:21:51;15.03;;;5.60;;
3231;SDS011;1628;48.884;9.210;2022-10-18T07:24:17;8.10;;;5.13;;
3231;SDS011;1628;48.884;9.210;2022-10-18T07:26:45;5.63;;;5.13;;
3231;SDS011;1628;48.884;9.210;2022-10-18T07:29:12;8.50;;;5.37;;
3231;SDS011;1628;48.884;9.210;2022-10-18T07:31:38;7.70;;;6.00;;
3231;SDS011;1628;48.884;9.210;2022-10-18T07:34:06;5.60;;;5.10;;
3231;SDS011;1628;48.884;9.210;2022-10-18T07:36:33;10.93;;;5.87;;
3231;SDS011;1628;48.884;9.210;2022-10-18T07:39:00;6.43;;;4.83;;
3231;SDS011;1628;48.884;9.210;2022-10-18T07:41:27;8.27;;;5.00;;
3231;SDS011;1628;48.884;9.210;2022-10-18T07:43:57;5.10;;;4.60;;
3231;SDS011;1628;48.884;9.210;2022-10-18T07:46:24;7.30;;;5.53;;
3231;SDS011;1628;48.884;9.210;2022-10-18T07:48:50;9.63;;;5.50;;
3231;SDS011;1628;48.884;9.210;2022-10-18T07:51:18;7.77;;;5.67;;
3231;SDS011;1628;48.884;9.210;2022-10-18T07:53:45;8.23;;;5.20;;
3231;SDS011;1628;48.884;9.210;2022-10-18T07:56:13;4.83;;;4.43;;
3231;SDS011;1628;48.884;9.210;2022-10-18T07:58:41;5.87;;;3.83;;
3231;SDS011;1628;48.884;9.210;2022-10-18T08:01:09;5.33;;;4.40;;
3231;SDS011;1628;48.884;9.210;2022-10-18T08:03:36;5.30;;;4.57;;
3231;SDS011;1628;48.884;9.210;2022-10-18T08:06:04;4.73;;;3.90;;
3231;SDS011;1628;48.884;9.210;2022-10-18T08:08:33;14.63;;;5.07;;
3231;SDS011;1628;48.884;9.210;2022-10-18T08:11:00;4.80;;;4.30;;
3231;SDS011;1628;48.884;9.210;2022-10-18T08:13:27;4.90;;;4.40;;
3231;SDS011;1628;48.884;9.210;2022-10-18T08:15:57;6.87;;;5.00;;
3231;SDS011;1628;48.884;9.210;2022-10-18T08:18:26;5.77;;;4.10;;
3231;SDS011;1628;48.884;9.210;2022-10-18T08:20:53;5.30;;;4.30;;
3231;SDS011;1628;48.884;9.210;2022-10-18T08:23:20;5.10;;;3.57;;
3231;SDS011;1628;48.884;9.210;2022-10-18T08:25:46;5.03;;;4.13;;
3231;SDS011;1628;48.884;9.210;2022-10-18T08:28:13;5.13;;;4.23;;
3231;SDS011;1628;48.884;9.210;2022-10-18T08:30:41;6.50;;;4.70;;
3231;SDS011;1628;48.884;9.210;2022-10-18T08:33:08;8.47;;;4.60;;
3231;SDS011;1628;48.884;9.210;2022-10-18T08:35:36;4.33;;;4.03;;
3231;SDS011;1628;48.884;9.210;2022-10-18T08:38:03;5.43;;;4.80;;
3231;SDS011;1628;48.884;9.210;2022-10-18T08:40:29;5.23;;;4.60;;
3231;SDS011;1628;48.884;9.210;2022-10-18T08:42:59;5.27;;;4.10;;
3231;SDS011;1628;48.884;9.210;2022-10-18T08:45:32;7.20;;;4.30;;
3231;SDS011;1628;48.884;9.210;2022-10-18T08:48:01;5.33;;;4.50;;
3231;SDS011;1628;48.884;9.210;2022-10-18T08:50:31;6.63;;;3.87;;
3231;SDS011;1628;48.884;9.210;2022-10-18T08:53:04;5.00;;;3.87;;
3231;SDS011;1628;48.884;9.210;2022-10-18T08:55:40;4.47;;;3.90;;
3231;SDS011;1628;48.884;9.210;2022-10-18T08:58:12;6.13;;;4.03;;
3231;SDS011;1628;48.884;9.210;2022-10-18T09:00:42;6.00;;;3.73;;
3231;SDS011;1628;48.884;9.210;2022-10-18T09:03:18;10.00;;;4.30;;
3231;SDS011;1628;48.884;9.210;2022-10-18T09:05:53;6.63;;;4.40;;
3231;SDS011;1628;48.884;9.210;2022-10-18T09:08:31;4.40;;;4.00;;
3231;SDS011;1628;48.884;9.210;2022-10-18T09:11:09;7.83;;;4.90;;
3231;SDS011;1628;48.884;9.210;2022-10-18T09:13:55;8.83;;;4.30;;
3231;SDS011;1628;48.884;9.210;2022-10-18T09:16:30;5.60;;;4.00;;
3231;SDS011;1628;48.884;9.210;2022-10-18T09:19:04;7.50;;;4.40;;
3231;SDS011;1628;48.884;9.210;2022-10-18T09:21:44;3.90;;;3.60;;
3231;SDS011;1628;48.884;9.210;2022-10-18T09:24:17;6.90;;;4.40;;
3231;SDS011;1628;48.884;9.210;2022-10-18T09:26:54;10.57;;;4.10;;
3231;SDS011;1628;48.884;9.210;2022-10-18T09:29:28;5.80;;;4.70;;
3231;SDS011;1628;48.884;9.210;2022-10-18T09:32:09;6.50;;;4.37;;
3231;SDS011;1628;48.884;9.210;2022-10-18T09:34:49;9.77;;;5.30;;
3231;SDS011;1628;48.884;9.210;2022-10-18T09:37:20;4.73;;;4.20;;
3231;SDS011;1628;48.884;9.210;2022-10-18T09:39:50;8.13;;;4.40;;
3231;SDS011;1628;48.884;9.210;2022-10-18T09:42:26;5.20;;;4.70;;
3231;SDS011;1628;48.884;9.210;2022-10-18T09:45:00;5.60;;;4.30;;
3231;SDS011;1628;48.884;9.210;2022-10-18T09:47:32;6.03;;;4.17;;
3231;SDS011;1628;48.884;9.210;2022-10-18T09:50:02;6.20;;;4.37;;
3231;SDS011;1628;48.884;9.210;2022-10-18T09:52:40;7.70;;;4.20;;
3231;SDS011;1628;48.884;9.210;2022-10-18T09:55:14;5.13;;;4.67;;
3231;SDS011;1628;48.884;9.210;2022-10-18T09:57:45;7.93;;;5.17;;
3231;SDS011;1628;48.884;9.210;2022-10-18T10:00:17;6.97;;;4.83;;
3231;SDS011;1628;48.884;9.210;2022-10-18T10:02:48;11.40;;;6.20;;
3231;SDS011;1628;48.884;9.210;2022-10-18T10:05:14;7.27;;;4.60;;
3231;SDS011;1628;48.884;9.210;2022-10-18T10:07:42;7.70;;;4.30;;
3231;SDS011;1628;48.884;9.210;2022-10-18T10:10:15;7.70;;;4.77;;
3231;SDS011;1628;48.884;9.210;2022-10-18T10:12:46;7.63;;;4.40;;
3231;SDS011;1628;48.884;9.210;2022-10-18T10:15:17;4.57;;;3.90;;
3231;SDS011;1628;48.884;9.210;2022-10-18T10:17:53;6.23;;;4.07;;
3231;SDS011;1628;48.884;9.210;2022-10-18T10:20:22;5.23;;;4.00;;
3231;SDS011;1628;48.884;9.210;2022-10-18T10:22:50;7.77;;;3.90;;
3231;SDS011;1628;48.884;9.210;2022-10-18T10:25:21;6.07;;;4.00;;
3231;SDS011;1628;48.884;9.210;2022-10-18T10:27:51;5.57;;;3.80;;
3231;SDS011;1628;48.884;9.210;2022-10-18T10:30:25;8.73;;;3.90;;
3231;SDS011;1628;48.884;9.210;2022-10-18T10:32:54;5.93;;;3.20;;
3231;SDS011;1628;48.884;9.210;2022-10-18T10:35:28;4.73;;;3.10;;
3231;SDS011;1628;48.884;9.210;2022-10-18T10:37:56;5.23;;;4.70;;
3231;SDS011;1628;48.884;9.210;2022-10-18T10:40:25;5.73;;;3.67;;
3231;SDS011;1628;48.884;9.210;2022-10-18T10:42:58;7.80;;;3.77;;
3231;SDS011;1628;48.884;9.210;2022-10-18T10:45:28;4.00;;;3.20;;
3231;SDS011;1628;48.884;9.210;2022-10-18T10:48:01;7.60;;;3.60;;
3231;SDS011;1628;48.884;9.210;2022-10-18T10:50:48;5.83;;;3.40;;
3231;SDS011;1628;48.884;9.210;2022-10-18T10:53:27;6.27;;;3.27;;
3231;SDS011;1628;48.884;9.210;2022-10-18T10:56:01;3.60;;;3.27;;
3231;SDS011;1628;48.884;9.210;2022-10-18T10:58:32;3.87;;;3.53;;
3231;SDS011;1628;48.884;9.210;2022-10-18T11:01:22;6.47;;;3.60;;
3231;SDS011;1628;48.884;9.210;2022-10-18T11:03:55;9.13;;;3.73;;
3231;SDS011;1628;48.884;9.210;2022-10-18T11:06:35;5.83;;;3.90;;
3231;SDS011;1628;48.884;9.210;2022-10-18T11:09:10;6.63;;;3.67;;
3231;SDS011;1628;48.884;9.210;2022-10-18T11:12:00;4.60;;;3.60;;
3231;SDS011;1628;48.884;9.210;2022-10-18T11:14:33;5.90;;;3.33;;
3231;SDS011;1628;48.884;9.210;2022-10-18T11:17:11;3.77;;;3.43;;
3231;SDS011;1628;48.884;9.210;2022-10-18T11:19:49;5.00;;;3.47;;
3231;SDS011;1628;48.884;9.210;2022-10-18T11:22:26;5.17;;;3.23;;
3231;SDS011;1628;48.884;9.210;2022-10-18T11:25:00;5.57;;;3.33;;
3231;SDS011;1628;48.884;9.210;2022-10-18T11:27:29;6.23;;;3.03;;
3231;SDS011;1628;48.884;9.210;2022-10-18T11:30:02;6.67;;;2.80;;
3231;SDS011;1628;48.884;9.210;2022-10-18T11:32:44;4.43;;;4.03;;
3231;SDS011;1628;48.884;9.210;2022-10-18T11:35:22;4.27;;;3.20;;
3231;SDS011;1628;48.884;9.210;2022-10-18T11:37:59;2.90;;;2.70;;
3231;SDS011;1628;48.884;9.210;2022-10-18T11:40:38;6.70;;;3.10;;
3231;SDS011;1628;48.884;9.210;2022-10-18T11:43:15;4.10;;;3.33;;
3231;SDS011;1628;48.884;9.210;2022-10-18T11:45:50;5.80;;;3.30;;
3231;SDS011;1628;48.884;9.210;2022-10-18T11:48:33;5.40;;;3.00;;
3231;SDS011;1628;48.884;9.210;2022-10-18T11:51:14;5.60;;;3.50;;
3231;SDS011;1628;48.884;9.210;2022-10-18T11:53:58;5.23;;;3.20;;
3231;SDS011;1628;48.884;9.210;2022-10-18T11:56:40;5.60;;;3.27;;
3231;SDS011;1628;48.884;9.210;2022-10-18T11:59:17;4.80;;;3.67;;
3231;SDS011;1628;48.884;9.210;2022-10-18T12:01:56;6.07;;;3.50;;
3231;SDS011;1628;48.884;9.210;2022-10-18T12:04:40;4.10;;;3.30;;
3231;SDS011;1628;48.884;9.210;2022-10-18T12:07:14;3.30;;;3.07;;
3231;SDS011;1628;48.884;9.210;2022-10-18T12:09:44;4.73;;;3.63;;
3231;SDS011;1628;48.884;9.210;2022-10-18T12:12:13;3.90;;;3.47;;
3231;SDS011;1628;48.884;9.210;2022-10-18T12:14:45;3.77;;;3.50;;
3231;SDS011;1628;48.884;9.210;2022-10-18T12:17:16;4.30;;;3.37;;
3231;SDS011;1628;48.884;9.210;2022-10-18T12:19:47;3.73;;;3.37;;
3231;SDS011;1628;48.884;9.210;2022-10-18T12:22:17;4.83;;;3.73;;
3231;SDS011;1628;48.884;9.210;2022-10-18T12:24:48;6.27;;;3.77;;
3231;SDS011;1628;48.884;9.210;2022-10-18T12:27:15;6.93;;;4.13;;
3231;SDS011;1628;48.884;9.210;2022-10-18T12:29:46;4.47;;;3.90;;
3231;SDS011;1628;48.884;9.210;2022-10-18T12:32:17;4.57;;;3.80;;
3231;SDS011;1628;48.884;9.210;2022-10-18T12:34:47;5.23;;;3.40;;
3231;SDS011;1628;48.884;9.210;2022-10-18T12:40:29;3.87;;;3.40;;
3231;SDS011;1628;48.884;9.210;2022-10-18T12:43:01;3.23;;;3.03;;
3231;SDS011;1628;48.884;9.210;2022-10-18T12:45:34;6.80;;;3.20;;
3231;SDS011;1628;48.884;9.210;2022-10-18T12:48:25;3.20;;;3.00;;
3231;SDS011;1628;48.884;9.210;2022-10-18T12:50:56;5.13;;;4.57;;
3231;SDS011;1628;48.884;9.210;2022-10-18T12:53:25;4.47;;;3.97;;
3231;SDS011;1628;48.884;9.210;2022-10-18T12:55:53;4.03;;;3.73;;
3231;SDS011;1628;48.884;9.210;2022-10-18T12:58:22;6.60;;;3.00;;
3231;SDS011;1628;48.884;9.210;2022-10-18T13:00:53;3.23;;;3.03;;
3231;SDS011;1628;48.884;9.210;2022-10-18T13:03:28;7.60;;;2.93;;
3231;SDS011;1628;48.884;9.210;2022-10-18T13:06:23;2.50;;;2.40;;
3231;SDS011;1628;48.884;9.210;2022-10-18T13:09:14;4.13;;;2.87;;
3231;SDS011;1628;48.884;9.210;2022-10-18T13:11:42;2.60;;;2.27;;
3231;SDS011;1628;48.884;9.210;2022-10-18T13:14:24;2.83;;;2.50;;
3231;SDS011;1628;48.884;9.210;2022-10-18T13:17:06;3.97;;;2.60;;
3231;SDS011;1628;48.884;9.210;2022-10-18T13:19:46;3.33;;;3.00;;
3231;SDS011;1628;48.884;9.210;2022-10-18T13:22:29;4.80;;;2.70;;
3231;SDS011;1628;48.884;9.210;2022-10-18T13:25:10;3.17;;;2.93;;
3231;SDS011;1628;48.884;9.210;2022-10-18T13:27:42;2.90;;;2.80;;
3231;SDS011;1628;48.884;9.210;2022-10-18T13:30:24;3.27;;;2.60;;
3231;SDS011;1628;48.884;9.210;2022-10-18T13:33:12;3.57;;;2.90;;
3231;SDS011;1628;48.884;9.210;2022-10-18T13:35:50;7.40;;;3.63;;
3231;SDS011;1628;48.884;9.210;2022-10-18T13:38:30;2.63;;;2.50;;
3231;SDS011;1628;48.884;9.210;2022-10-18T13:41:14;5.40;;;3.20;;
3231;SDS011;1628;48.884;9.210;2022-10-18T13:53:15;4.17;;;3.50;;
3231;SDS011;1628;48.884;9.210;2022-10-18T13:55:58;3.87;;;3.40;;
3231;SDS011;1628;48.884;9.210;2022-10-18T13:58:42;5.97;;;3.83;;
3231;SDS011;1628;48.884;9.210;2022-10-18T14:01:22;6.93;;;3.57;;
3231;SDS011;1628;48.884;9.210;2022-10-18T14:06:52;3.50;;;3.17;;
3231;SDS011;1628;48.884;9.210;2022-10-18T14:09:25;6.10;;;3.57;;
3231;SDS011;1628;48.884;9.210;2022-10-18T14:11:54;5.83;;;3.30;;
3231;SDS011;1628;48.884;9.210;2022-10-18T14:14:27;5.30;;;3.00;;
3231;SDS011;1628;48.884;9.210;2022-10-18T14:16:59;4.20;;;3.17;;
3231;SDS011;1628;48.884;9.210;2022-10-18T14:19:32;5.20;;;3.23;;
3231;SDS011;1628;48.884;9.210;2022-10-18T14:22:06;3.70;;;3.40;;
3231;SDS011;1628;48.884;9.210;2022-10-18T14:24:41;5.67;;;3.10;;
3231;SDS011;1628;48.884;9.210;2022-10-18T14:27:12;3.70;;;2.93;;
3231;SDS011;1628;48.884;9.210;2022-10-18T14:29:43;5.50;;;2.80;;
3231;SDS011;1628;48.884;9.210;2022-10-18T14:32:23;3.07;;;2.77;;
3231;SDS011;1628;48.884;9.210;2022-10-18T14:34:51;3.30;;;2.70;;
3231;SDS011;1628;48.884;9.210;2022-10-18T14:37:20;5.40;;;3.10;;
3231;SDS011;1628;48.884;9.210;2022-10-18T14:39:53;3.20;;;2.80;;
3231;SDS011;1628;48.884;9.210;2022-10-18T14:42:21;5.23;;;3.20;;
3231;SDS011;1628;48.884;9.210;2022-10-18T14:44:49;5.53;;;4.10;;
3231;SDS011;1628;48.884;9.210;2022-10-18T14:47:19;4.93;;;2.93;;
3231;SDS011;1628;48.884;9.210;2022-10-18T14:49:48;3.20;;;3.00;;
3231;SDS011;1628;48.884;9.210;2022-10-18T14:52:18;3.30;;;3.10;;
3231;SDS011;1628;48.884;9.210;2022-10-18T14:54:46;4.97;;;3.70;;
3231;SDS011;1628;48.884;9.210;2022-10-18T14:57:16;3.10;;;2.90;;
3231;SDS011;1628;48.884;9.210;2022-10-18T14:59:47;3.53;;;3.23;;
3231;SDS011;1628;48.884;9.210;2022-10-18T15:02:16;3.63;;;3.40;;
3231;SDS011;1628;48.884;9.210;2022-10-18T15:04:53;5.30;;;3.83;;
3231;SDS011;1628;48.884;9.210;2022-10-18T15:07:22;3.73;;;3.30;;
3231;SDS011;1628;48.884;9.210;2022-10-18T15:09:49;3.80;;;3.43;;
3231;SDS011;1628;48.884;9.210;2022-10-18T15:12:18;4.20;;;3.90;;
3231;SDS011;1628;48.884;9.210;2022-10-18T15:14:45;5.20;;;3.70;;
3231;SDS011;1628;48.884;9.210;2022-10-18T15:17:13;3.63;;;3.33;;
3231;SDS011;1628;48.884;9.210;2022-10-18T15:19:52;14.20;;;4.20;;
3231;SDS011;1628;48.884;9.210;2022-10-18T15:22:21;5.70;;;4.20;;
3231;SDS011;1628;48.884;9.210;2022-10-18T15:25:02;4.00;;;3.80;;
3231;SDS011;1628;48.884;9.210;2022-10-18T15:27:35;3.80;;;3.60;;
3231;SDS011;1628;48.884;9.210;2022-10-18T15:30:04;5.37;;;4.07;;
3231;SDS011;1628;48.884;9.210;2022-10-18T15:32:34;4.80;;;4.20;;
3231;SDS011;1628;48.884;9.210;2022-10-18T15:35:05;7.17;;;3.97;;
3231;SDS011;1628;48.884;9.210;2022-10-18T15:37:34;4.40;;;4.17;;
3231;SDS011;1628;48.884;9.210;2022-10-18T15:40:15;4.20;;;3.90;;
3231;SDS011;1628;48.884;9.210;2022-10-18T15:43:04;6.63;;;4.40;;
3231;SDS011;1628;48.884;9.210;2022-10-18T15:45:52;4.40;;;4.07;;
3231;SDS011;1628;48.884;9.210;2022-10-18T15:48:21;4.03;;;3.83;;
3231;SDS011;1628;48.884;9.210;2022-10-18T15:50:50;4.63;;;4.30;;
3231;SDS011;1628;48.884;9.210;2022-10-18T15:53:28;4.23;;;3.83;;
3231;SDS011;1628;48.884;9.210;2022-10-18T15:56:12;4.20;;;3.90;;
3231;SDS011;1628;48.884;9.210;2022-10-18T15:58:54;4.67;;;4.27;;
3231;SDS011;1628;48.884;9.210;2022-10-18T16:01:22;4.60;;;4.30;;
3231;SDS011;1628;48.884;9.210;2022-10-18T16:03:56;4.50;;;4.03;;
3231;SDS011;1628;48.884;9.210;2022-10-18T16:06:24;4.70;;;4.40;;
3231;SDS011;1628;48.884;9.210;2022-10-18T16:08:51;3.87;;;3.57;;
3231;SDS011;1628;48.884;9.210;2022-10-18T16:11:19;4.20;;;3.90;;
3231;SDS011;1628;48.884;9.210;2022-10-18T16:13:48;4.10;;;3.83;;
3231;SDS011;1628;48.884;9.210;2022-10-18T16:16:18;4.10;;;3.80;;
3231;SDS011;1628;48.884;9.210;2022-10-18T16:18:47;4.53;;;4.10;;
3231;SDS011;1628;48.884;9.210;2022-10-18T16:21:15;4.33;;;4.03;;
3231;SDS011;1628;48.884;9.210;2022-10-18T16:23:44;5.13;;;4.73;;
3231;SDS011;1628;48.884;9.210;2022-10-18T16:26:13;4.83;;;4.27;;
3231;SDS011;1628;48.884;9.210;2022-10-18T16:28:41;4.90;;;4.60;;
3231;SDS011;1628;48.884;9.210;2022-10-18T16:31:09;4.73;;;4.13;;
3231;SDS011;1628;48.884;9.210;2022-10-18T16:33:41;4.63;;;4.27;;
3231;SDS011;1628;48.884;9.210;2022-10-18T16:36:10;5.07;;;4.77;;
3231;SDS011;1628;48.884;9.210;2022-10-18T16:38:39;4.23;;;3.93;;
3231;SDS011;1628;48.884;9.210;2022-10-18T16:41:06;4.77;;;4.50;;
3231;SDS011;1628;48.884;9.210;2022-10-18T16:43:33;6.97;;;4.87;;
3231;SDS011;1628;48.884;9.210;2022-10-18T16:46:01;5.33;;;4.83;;
3231;SDS011;1628;48.884;9.210;2022-10-18T16:48:28;5.40;;;5.00;;
3231;SDS011;1628;48.884;9.210;2022-10-18T16:50:56;5.00;;;4.60;;
3231;SDS011;1628;48.884;9.210;2022-10-18T16:53:23;5.30;;;4.80;;
3231;SDS011;1628;48.884;9.210;2022-10-18T16:55:52;5.67;;;5.07;;
3231;SDS011;1628;48.884;9.210;2022-10-18T16:58:21;5.03;;;4.50;;
3231;SDS011;1628;48.884;9.210;2022-10-18T17:00:48;8.10;;;5.87;;
3231;SDS011;1628;48.884;9.210;2022-10-18T17:03:14;4.70;;;4.40;;
3231;SDS011;1628;48.884;9.210;2022-10-18T17:05:42;5.07;;;4.73;;
3231;SDS011;1628;48.884;9.210;2022-10-18T17:08:14;5.10;;;4.70;;
3231;SDS011;1628;48.884;9.210;2022-10-18T17:10:44;5.10;;;4.60;;
3231;SDS011;1628;48.884;9.210;2022-10-18T17:13:11;5.60;;;5.13;;
3231;SDS011;1628;48.884;9.210;2022-10-18T17:15:38;6.03;;;5.47;;
3231;SDS011;1628;48.884;9.210;2022-10-18T17:18:08;5.70;;;5.20;;
3231;SDS011;1628;48.884;9.210;2022-10-18T17:20:36;6.33;;;5.90;;
3231;SDS011;1628;48.884;9.210;2022-10-18T17:23:02;6.20;;;5.70;;
3231;SDS011;1628;48.884;9.210;2022-10-18T17:25:30;8.43;;;5.73;;
3231;SDS011;1628;48.884;9.210;2022-10-18T17:27:57;6.07;;;5.57;;
3231;SDS011;1628;48.884;9.210;2022-10-18T17:30:24;6.07;;;5.57;;
3231;SDS011;1628;48.884;9.210;2022-10-18T17:32:50;6.17;;;5.57;;
3231;SDS011;1628;48.884;9.210;2022-10-18T17:35:17;5.97;;;5.43;;
3231;SDS011;1628;48.884;9.210;2022-10-18T17:37:45;7.07;;;5.80;;
3231;SDS011;1628;48.884;9.210;2022-10-18T17:40:13;6.57;;;5.97;;
3231;SDS011;1628;48.884;9.210;2022-10-18T17:42:41;5.50;;;5.10;;
3231;SDS011;1628;48.884;9.210;2022-10-18T17:45:08;5.60;;;5.20;;
3231;SDS011;1628;48.884;9.210;2022-10-18T17:47:36;7.03;;;6.40;;
3231;SDS011;1628;48.884;9.210;2022-10-18T17:50:03;6.30;;;5.80;;
3231;SDS011;1628;48.884;9.210;2022-10-18T17:52:30;8.80;;;6.40;;
3231;SDS011;1628;48.884;9.210;2022-10-18T17:54:56;6.23;;;5.63;;
3231;SDS011;1628;48.884;9.210;2022-10-18T17:57:23;6.23;;;5.73;;
3231;SDS011;1628;48.884;9.210;2022-10-18T17:59:51;7.37;;;6.77;;
3231;SDS011;1628;48.884;9.210;2022-10-18T18:02:19;8.27;;;7.60;;
3231;SDS011;1628;48.884;9.210;2022-10-18T18:04:46;8.70;;;7.80;;
3231;SDS011;1628;48.884;9.210;2022-10-18T18:07:12;7.70;;;6.90;;
3231;SDS011;1628;48.884;9.210;2022-10-18T18:09:39;7.60;;;6.90;;
3231;SDS011;1628;48.884;9.210;2022-10-18T18:12:06;7.40;;;6.80;;
3231;SDS011;1628;48.884;9.210;2022-10-18T18:14:32;6.70;;;6.27;;
3231;SDS011;1628;48.884;9.210;2022-10-18T18:17:00;6.60;;;6.00;;
3231;SDS011;1628;48.884;9.210;2022-10-18T18:19:27;7.20;;;6.50;;
3231;SDS011;1628;48.884;9.210;2022-10-18T18:21:54;7.10;;;6.60;;
3231;SDS011;1628;48.884;9.210;2022-10-18T18:24:22;6.90;;;6.30;;
3231;SDS011;1628;48.884;9.210;2022-10-18T18:26:49;6.60;;;6.10;;
3231;SDS011;1628;48.884;9.210;2022-10-18T18:29:17;5.90;;;5.50;;
3231;SDS011;1628;48.884;9.210;2022-10-18T18:31:44;7.10;;;6.50;;
3231;SDS011;1628;48.884;9.210;2022-10-18T18:34:12;6.43;;;5.93;;
3231;SDS011;1628;48.884;9.210;2022-10-18T18:36:40;7.90;;;5.60;;
3231;SDS011;1628;48.884;9.210;2022-10-18T18:39:07;7.30;;;6.03;;
3231;SDS011;1628;48.884;9.210;2022-10-18T18:41:41;6.93;;;5.80;;
3231;SDS011;1628;48.884;9.210;2022-10-18T18:44:07;6.30;;;5.80;;
3231;SDS011;1628;48.884;9.210;2022-10-18T18:46:34;6.20;;;5.60;;
3231;SDS011;1628;48.884;9.210;2022-10-18T18:49:02;6.30;;;5.80;;
3231;SDS011;1628;48.884;9.210;2022-10-18T18:51:31;6.10;;;5.63;;
3231;SDS011;1628;48.884;9.210;2022-10-18T18:53:58;9.07;;;5.70;;
3231;SDS011;1628;48.884;9.210;2022-10-18T18:56:26;6.73;;;6.10;;
3231;SDS011;1628;48.884;9.210;2022-10-18T18:58:53;8.10;;;6.30;;
3231;SDS011;1628;48.884;9.210;2022-10-18T19:01:23;7.33;;;6.50;;
3231;SDS011;1628;48.884;9.210;2022-10-18T19:03:51;7.17;;;6.00;;
3231;SDS011;1628;48.884;9.210;2022-10-18T19:06:23;8.30;;;7.57;;
3231;SDS011;1628;48.884;9.210;2022-10-18T19:08:52;8.40;;;7.60;;
3231;SDS011;1628;48.884;9.210;2022-10-18T19:11:24;7.80;;;7.00;;
3231;SDS011;1628;48.884;9.210;2022-10-18T19:13:52;7.40;;;6.80;;
3231;SDS011;1628;48.884;9.210;2022-10-18T19:16:21;8.23;;;7.43;;
3231;SDS011;1628;48.884;9.210;2022-10-18T19:18:56;9.27;;;7.43;;
3231;SDS011;1628;48.884;9.210;2022-10-18T19:21:24;8.07;;;7.30;;
3231;SDS011;1628;48.884;9.210;2022-10-18T19:23:54;8.23;;;7.50;;
3231;SDS011;1628;48.884;9.210;2022-10-18T19:26:28;8.13;;;7.43;;
3231;SDS011;1628;48.884;9.210;2022-10-18T19:29:01;8.60;;;7.90;;
3231;SDS011;1628;48.884;9.210;2022-10-18T19:31:30;7.97;;;7.27;;
3231;SDS011;1628;48.884;9.210;2022-10-18T19:33:58;8.20;;;7.50;;
3231;SDS011;1628;48.884;9.210;2022-10-18T19:36:24;7.73;;;7.13;;
3231;SDS011;1628;48.884;9.210;2022-10-18T19:38:52;8.50;;;7.60;;
3231;SDS011;1628;48.884;9.210;2022-10-18T19:41:20;7.83;;;7.10;;
3231;SDS011;1628;48.884;9.210;2022-10-18T19:43:47;8.37;;;7.70;;
3231;SDS011;1628;48.884;9.210;2022-10-18T19:46:14;7.73;;;7.10;;
3231;SDS011;1628;48.884;9.210;2022-10-18T19:48:41;7.77;;;7.03;;
3231;SDS011;1628;48.884;9.210;2022-10-18T19:51:07;8.77;;;8.07;;